Welcome to Des Moines Iowa Weather. I am an independent private personal weather station on the Northwest Side of Des Moines, Iowa. Just East of Windsor Heights and just West of Glendale . This site is also mobile friendly.

There are no active watches, warnings or advisories


Visit our other weather sites:

Historical Data

Weather Station Setup



Weather Underground History page Text

Daily Summary for September 27, 2017 Units:  English    Metric   Both
« Previous Day
Next Day »
Daily Weekly Monthly Yearly Custom
  High: Low: Average:
Temperature: 67.0 °F 50.2 °F 58.5 °F
Dew Point: 54.0 °F 48.0 °F 51.6 °F
Humidity: 94 % 59 % 79 %
Wind Speed: 3.0 mph 0.0 mph 0.2 mph
Wind Gust: 9.0 mph - -
Wind:- - NNE
Pressure: 30.24 in 30.11 in -
Precipitation: 0.00 in    
Historical Graphs
 
 
Tabular Data for September 27, 2017
Time Temperature Dew Point Pressure Wind Wind Speed Wind Gust Humidity Rainfall Rate (Hourly)
00:06 58.3 °F 53.0 °F 30.12 in Calm   5.0 mph 83 % 0.00 in
00:21 58.1 °F 53.0 °F 30.12 in Calm   5.0 mph 83 % 0.00 in
00:36 57.8 °F 53.0 °F 30.11 in Calm   6.0 mph 83 % 0.00 in
00:51 57.6 °F 53.0 °F 30.11 in Calm   3.0 mph 84 % 0.00 in
01:06 57.3 °F 53.0 °F 30.11 in Calm   5.0 mph 84 % 0.00 in
01:21 57.1 °F 53.0 °F 30.12 in Calm   5.0 mph 85 % 0.00 in
01:36 56.9 °F 53.0 °F 30.12 in North 1.0 mph 5.0 mph 85 % 0.00 in
01:51 56.7 °F 52.0 °F 30.12 in Calm   4.0 mph 85 % 0.00 in
02:06 56.5 °F 52.0 °F 30.12 in North 3.0 mph 3.0 mph 85 % 0.00 in
02:21 56.3 °F 52.0 °F 30.12 in Calm   4.0 mph 85 % 0.00 in
02:36 56.0 °F 52.0 °F 30.13 in Calm   4.0 mph 86 % 0.00 in
02:51 55.8 °F 52.0 °F 30.13 in Calm   3.0 mph 86 % 0.00 in
03:06 55.5 °F 51.0 °F 30.13 in Calm   2.0 mph 86 % 0.00 in
03:22 55.2 °F 51.0 °F 30.13 in Calm   1.0 mph 86 % 0.00 in
03:36 54.9 °F 51.0 °F 30.14 in Calm   1.0 mph 87 % 0.00 in
03:51 54.5 °F 51.0 °F 30.14 in North 2.0 mph 3.0 mph 87 % 0.00 in
04:06 54.2 °F 51.0 °F 30.14 in Calm   1.0 mph 88 % 0.00 in
04:21 53.9 °F 51.0 °F 30.16 in Calm     88 % 0.00 in
04:36 53.6 °F 50.0 °F 30.14 in Calm     88 % 0.00 in
04:51 53.4 °F 50.0 °F 30.15 in Calm   1.0 mph 89 % 0.00 in
05:06 53.1 °F 50.0 °F 30.16 in Calm   1.0 mph 89 % 0.00 in
05:21 52.8 °F 50.0 °F 30.16 in Calm     89 % 0.00 in
05:36 52.4 °F 49.0 °F 30.16 in Calm     89 % 0.00 in
05:52 52.0 °F 49.0 °F 30.17 in Calm     89 % 0.00 in
06:07 51.6 °F 49.0 °F 30.17 in Calm     90 % 0.00 in
06:22 51.4 °F 49.0 °F 30.16 in Calm     90 % 0.00 in
06:37 51.2 °F 49.0 °F 30.18 in Calm     91 % 0.00 in
06:52 51.0 °F 49.0 °F 30.18 in Calm     91 % 0.00 in
07:07 50.8 °F 48.0 °F 30.19 in Calm     91 % 0.00 in
07:22 50.5 °F 48.0 °F 30.20 in Calm     91 % 0.00 in
07:37 50.2 °F 48.0 °F 30.21 in Calm     91 % 0.00 in
07:52 50.3 °F 48.0 °F 30.21 in Calm     92 % 0.00 in
08:07 50.7 °F 49.0 °F 30.21 in Calm     93 % 0.00 in
08:22 51.3 °F 50.0 °F 30.21 in Calm     94 % 0.00 in
08:37 52.1 °F 51.0 °F 30.21 in Calm     94 % 0.00 in
08:52 52.9 °F 51.0 °F 30.21 in NE 1.0 mph 3.0 mph 94 % 0.00 in
09:07 53.7 °F 52.0 °F 30.21 in Calm   4.0 mph 94 % 0.00 in
09:22 54.5 °F 52.0 °F 30.23 in Calm   3.0 mph 92 % 0.00 in
09:37 55.4 °F 52.0 °F 30.23 in Calm   3.0 mph 89 % 0.00 in
09:52 56.3 °F 52.0 °F 30.23 in Calm   3.0 mph 86 % 0.00 in
10:07 57.0 °F 53.0 °F 30.24 in NNE 2.0 mph 2.0 mph 85 % 0.00 in
10:22 57.7 °F 52.0 °F 30.24 in Calm   4.0 mph 82 % 0.00 in
10:37 58.3 °F 53.0 °F 30.24 in Calm   3.0 mph 81 % 0.00 in
10:52 59.2 °F 53.0 °F 30.24 in Calm   2.0 mph 81 % 0.00 in
11:07 59.9 °F 53.0 °F 30.24 in Calm   3.0 mph 78 % 0.00 in
11:22 60.5 °F 52.0 °F 30.24 in Calm   3.0 mph 74 % 0.00 in
11:52 61.8 °F 53.0 °F 30.23 in North 2.0 mph 8.0 mph 72 % 0.00 in
12:08 62.2 °F 54.0 °F 30.23 in North 2.0 mph 4.0 mph 74 % 0.00 in
12:23 62.7 °F 53.0 °F 30.23 in North 1.0 mph 5.0 mph 71 % 0.00 in
12:38 63.4 °F 53.0 °F 30.22 in Calm   3.0 mph 69 % 0.00 in
12:53 63.8 °F 53.0 °F 30.22 in Calm   4.0 mph 68 % 0.00 in
13:08 64.1 °F 52.0 °F 30.22 in ENE 1.0 mph 6.0 mph 65 % 0.00 in
13:23 64.3 °F 51.0 °F 30.21 in Calm   4.0 mph 62 % 0.00 in
13:38 64.9 °F 52.0 °F 30.21 in North 3.0 mph 4.0 mph 63 % 0.00 in
13:53 64.9 °F 53.0 °F 30.20 in Calm   5.0 mph 65 % 0.00 in
14:08 65.8 °F 53.0 °F 30.20 in Calm   7.0 mph 63 % 0.00 in
14:23 65.8 °F 52.0 °F 30.20 in Calm   4.0 mph 62 % 0.00 in
14:38 65.7 °F 52.0 °F 30.21 in NNE 2.0 mph 4.0 mph 62 % 0.00 in
14:53 66.2 °F 54.0 °F 30.20 in Calm   3.0 mph 64 % 0.00 in
15:08 66.4 °F 53.0 °F 30.19 in NE 1.0 mph 4.0 mph 63 % 0.00 in
15:23 66.3 °F 53.0 °F 30.19 in Calm   5.0 mph 63 % 0.00 in
15:38 66.8 °F 54.0 °F 30.19 in Calm   4.0 mph 63 % 0.00 in
15:53 67.0 °F 52.0 °F 30.18 in NNE 1.0 mph 4.0 mph 59 % 0.00 in
16:08 67.0 °F 52.0 °F 30.18 in Calm   4.0 mph 60 % 0.00 in
16:23 66.9 °F 52.0 °F 30.18 in Calm   4.0 mph 59 % 0.00 in
16:38 66.8 °F 53.0 °F 30.19 in Calm   9.0 mph 61 % 0.00 in
16:53 66.8 °F 52.0 °F 30.18 in Calm   8.0 mph 60 % 0.00 in
17:08 66.7 °F 52.0 °F 30.18 in Calm   5.0 mph 60 % 0.00 in
17:23 66.8 °F 52.0 °F 30.18 in Calm   6.0 mph 60 % 0.00 in
17:38 66.4 °F 52.0 °F 30.18 in Calm   2.0 mph 60 % 0.00 in
17:53 66.0 °F 52.0 °F 30.18 in Calm   2.0 mph 62 % 0.00 in
18:08 65.6 °F 52.0 °F 30.18 in Calm     62 % 0.00 in
18:23 65.2 °F 52.0 °F 30.18 in Calm   1.0 mph 63 % 0.00 in
18:38 65.0 °F 52.0 °F 30.19 in Calm     64 % 0.00 in
18:53 64.4 °F 53.0 °F 30.18 in Calm     66 % 0.00 in
19:08 63.7 °F 52.0 °F 30.18 in Calm     67 % 0.00 in
19:23 62.8 °F 52.0 °F 30.18 in Calm     69 % 0.00 in
19:39 61.8 °F 53.0 °F 30.18 in Calm     72 % 0.00 in
19:53 60.7 °F 52.0 °F 30.18 in Calm     74 % 0.00 in
20:08 59.8 °F 53.0 °F 30.18 in Calm     77 % 0.00 in
20:23 59.0 °F 52.0 °F 30.18 in Calm     78 % 0.00 in
20:38 58.3 °F 52.0 °F 30.19 in Calm     80 % 0.00 in
20:53 57.7 °F 52.0 °F 30.18 in Calm     81 % 0.00 in
21:08 57.3 °F 52.0 °F 30.18 in Calm     82 % 0.00 in
21:23 56.8 °F 52.0 °F 30.18 in Calm     83 % 0.00 in
21:38 56.4 °F 52.0 °F 30.18 in Calm     84 % 0.00 in
21:53 56.1 °F 51.0 °F 30.18 in Calm     84 % 0.00 in
22:08 55.7 °F 51.0 °F 30.18 in Calm     85 % 0.00 in
22:23 55.3 °F 51.0 °F 30.18 in Calm     85 % 0.00 in
22:38 55.0 °F 51.0 °F 30.18 in Calm     86 % 0.00 in
22:53 54.6 °F 51.0 °F 30.18 in Calm     87 % 0.00 in
23:08 54.3 °F 51.0 °F 30.18 in Calm     87 % 0.00 in
23:23 54.1 °F 51.0 °F 30.18 in Calm     88 % 0.00 in
23:38 53.8 °F 50.0 °F 30.17 in Calm     88 % 0.00 in
23:53 53.7 °F 51.0 °F 30.17 in Calm     89 % 0.00 in
Des Moines Weather and Climate
Compliments of Weather Underground - 3 mb

Script developed by  Jim McMurry - jmcmurry@mwt.net Adapted for the template by  Wim van der Kuil - Leuven-Template.eu

You find our weather info also at:

Weather Underground

Equipment we use:

Weather-station
Davis VP2 Plus

Weather-program
Davis Weatherlink.Com

Weather-server
iMac (Retina 4K, 21.5-inch, Late 2015)

Provider
Hostmonster.com

Davis VP2 Plus

Davis Weatherlink.Com

iMac (Retina 4K, 21.5-inch, Late 2015)

Hostmonster.com